createdAt,value
2018-05-24T00:01:23.258Z,18.06
2018-05-24T00:03:56.900Z,18.04
2018-05-24T00:06:30.617Z,18.01
2018-05-24T00:09:05.117Z,18.08
2018-05-24T00:11:38.686Z,18.12
2018-05-24T00:14:12.345Z,17.99
2018-05-24T00:16:45.954Z,18.03
2018-05-24T00:19:19.721Z,17.97
2018-05-24T00:21:53.622Z,17.94
2018-05-24T00:24:27.360Z,17.97
2018-05-24T00:27:00.977Z,17.93
2018-05-24T00:29:34.778Z,17.84
2018-05-24T00:32:08.381Z,17.82
2018-05-24T00:34:42.057Z,17.87
2018-05-24T00:37:15.731Z,17.92
2018-05-24T00:39:49.418Z,17.89
2018-05-24T00:42:23.248Z,17.91
2018-05-24T00:44:57.005Z,18.05
2018-05-24T00:47:30.570Z,18.07
2018-05-24T00:50:04.217Z,18.07
2018-05-24T00:52:37.941Z,18.10
2018-05-24T00:55:23.369Z,18.06
2018-05-24T00:57:57.052Z,17.95
2018-05-24T01:00:30.608Z,17.91
2018-05-24T01:03:04.374Z,17.96
2018-05-24T01:05:37.957Z,18.08
2018-05-24T01:08:11.732Z,17.98
2018-05-24T01:10:45.460Z,17.87
2018-05-24T01:13:19.208Z,17.89
2018-05-24T01:15:52.956Z,17.83
2018-05-24T01:18:26.550Z,17.86
2018-05-24T01:21:00.214Z,18.07
2018-05-24T01:23:34.035Z,17.97
2018-05-24T01:26:07.721Z,17.96
2018-05-24T01:28:41.596Z,17.88
2018-05-24T01:31:15.237Z,17.84
2018-05-24T01:33:48.894Z,17.77
2018-05-24T01:36:22.667Z,17.77
2018-05-24T01:38:56.247Z,17.74
2018-05-24T01:41:29.943Z,17.74
2018-05-24T01:44:03.694Z,17.71
2018-05-24T01:46:37.479Z,17.74
2018-05-24T01:49:11.277Z,17.73
2018-05-24T01:51:44.857Z,17.73
2018-05-24T01:54:18.491Z,17.70
2018-05-24T01:56:52.241Z,17.65
2018-05-24T01:59:25.963Z,17.58
2018-05-24T02:01:59.521Z,17.56
2018-05-24T02:04:33.167Z,17.64
2018-05-24T02:07:06.759Z,17.60
2018-05-24T02:09:40.560Z,17.53
2018-05-24T02:12:14.304Z,17.57
2018-05-24T02:14:48.037Z,17.55
2018-05-24T02:17:21.772Z,17.62
2018-05-24T02:19:55.349Z,17.58
2018-05-24T02:22:29.012Z,17.60
2018-05-24T02:25:02.638Z,17.61
2018-05-24T02:27:36.228Z,17.65
2018-05-24T02:30:09.945Z,17.68
2018-05-24T02:32:43.639Z,17.64
2018-05-24T02:35:17.217Z,17.65
2018-05-24T02:37:50.931Z,17.61
2018-05-24T02:40:24.632Z,17.56
2018-05-24T02:42:58.849Z,17.56
2018-05-24T02:45:32.533Z,17.45
2018-05-24T02:48:06.280Z,17.44
2018-05-24T02:50:39.905Z,17.42
2018-05-24T02:53:13.693Z,17.33
2018-05-24T02:55:47.384Z,17.30
2018-05-24T02:58:21.235Z,17.36
2018-05-24T03:00:54.969Z,17.39
2018-05-24T03:03:28.768Z,17.30
2018-05-24T03:06:02.557Z,17.35
2018-05-24T03:08:36.420Z,17.19
2018-05-24T03:11:10.113Z,17.24
2018-05-24T03:13:43.841Z,17.16
2018-05-24T03:16:17.470Z,17.08
2018-05-24T03:18:51.299Z,17.01
2018-05-24T03:21:24.987Z,17.02
2018-05-24T03:23:58.695Z,17.04
2018-05-24T03:26:32.404Z,16.95
2018-05-24T03:29:06.061Z,16.92
2018-05-24T03:31:39.875Z,16.92
2018-05-24T03:34:13.521Z,16.96
2018-05-24T03:36:47.340Z,16.87
2018-05-24T03:39:21.080Z,16.78
2018-05-24T03:41:54.818Z,16.78
2018-05-24T03:44:28.523Z,16.72
2018-05-24T03:47:02.329Z,16.69
2018-05-24T03:49:36.018Z,16.68
2018-05-24T03:52:09.676Z,16.75
2018-05-24T03:54:43.413Z,16.57
2018-05-24T03:57:16.985Z,16.58
2018-05-24T04:00:11.514Z,16.50
2018-05-24T04:02:57.143Z,16.59
2018-05-24T04:05:30.850Z,16.72
2018-05-24T04:08:04.409Z,16.70
2018-05-24T04:10:37.949Z,16.68
2018-05-24T04:13:11.660Z,16.72
2018-05-24T04:15:45.291Z,16.52
2018-05-24T04:18:18.955Z,16.03
2018-05-24T04:20:52.649Z,15.74
2018-05-24T04:23:26.335Z,15.27
2018-05-24T04:26:00.057Z,15.12
2018-05-24T04:28:33.751Z,14.96
2018-05-24T04:31:07.443Z,14.92
2018-05-24T04:33:41.191Z,14.85
2018-05-24T04:36:14.946Z,14.60
2018-05-24T04:38:48.649Z,14.51
2018-05-24T04:41:22.238Z,14.44
2018-05-24T04:43:55.818Z,14.44
2018-05-24T04:46:29.457Z,14.42
2018-05-24T04:49:03.049Z,14.40
2018-05-24T04:51:36.768Z,14.52
2018-05-24T04:54:10.449Z,14.61
2018-05-24T04:56:44.069Z,14.63
2018-05-24T04:59:17.675Z,14.57
2018-05-24T05:01:51.421Z,14.60
2018-05-24T05:04:25.079Z,14.73
2018-05-24T05:07:22.574Z,14.73
2018-05-24T05:09:56.161Z,14.91
2018-05-24T05:12:29.945Z,14.86
2018-05-24T05:15:03.653Z,14.82
2018-05-24T05:17:37.510Z,14.88
2018-05-24T05:20:11.024Z,14.82
2018-05-24T05:22:44.765Z,14.79
2018-05-24T05:25:18.477Z,14.80
2018-05-24T05:27:52.052Z,14.81
2018-05-24T05:30:25.785Z,14.80
2018-05-24T05:32:59.580Z,14.76
2018-05-24T05:35:33.162Z,14.79
2018-05-24T05:38:06.858Z,14.86
2018-05-24T05:40:40.417Z,14.88
2018-05-24T05:43:14.130Z,14.95
2018-05-24T05:45:47.912Z,15.07
2018-05-24T05:48:21.584Z,15.05
2018-05-24T05:50:55.261Z,15.04
2018-05-24T05:53:29.091Z,15.02
2018-05-24T05:56:02.647Z,14.95
2018-05-24T05:58:36.358Z,14.96
2018-05-24T06:01:10.002Z,14.96
2018-05-24T06:03:43.593Z,14.92
2018-05-24T06:06:17.357Z,14.93
2018-05-24T06:08:51.115Z,14.84
2018-05-24T06:11:24.713Z,14.91
2018-05-24T06:13:58.578Z,14.82
2018-05-24T06:16:45.168Z,14.82
2018-05-24T06:19:18.808Z,14.90
2018-05-24T06:21:52.545Z,14.92
2018-05-24T06:24:26.135Z,14.99
2018-05-24T06:26:59.668Z,14.96
2018-05-24T06:29:33.352Z,14.99
2018-05-24T06:32:07.154Z,14.99
2018-05-24T06:34:40.986Z,15.01
2018-05-24T06:37:14.803Z,15.00
2018-05-24T06:39:48.360Z,15.03
2018-05-24T06:42:21.951Z,15.05
2018-05-24T06:44:55.686Z,15.11
2018-05-24T06:47:29.454Z,15.16
2018-05-24T06:50:03.181Z,15.31
2018-05-24T06:52:36.909Z,15.42
2018-05-24T06:55:10.673Z,15.53
2018-05-24T06:57:44.437Z,15.59
2018-05-24T07:00:18.134Z,15.60
2018-05-24T07:02:51.761Z,15.68
2018-05-24T07:05:25.617Z,15.72
2018-05-24T07:07:59.333Z,15.83
2018-05-24T07:10:33.080Z,15.86
2018-05-24T07:13:06.665Z,15.92
2018-05-24T07:15:40.559Z,15.97
2018-05-24T07:18:14.312Z,15.97
2018-05-24T07:20:48.055Z,16.11
2018-05-24T07:23:21.641Z,16.12
2018-05-24T07:25:55.242Z,16.42
2018-05-24T07:28:28.867Z,16.34
2018-05-24T07:31:02.556Z,16.48
2018-05-24T07:33:36.271Z,16.71
2018-05-24T07:36:09.843Z,16.79
2018-05-24T07:38:43.606Z,16.81
2018-05-24T07:41:17.286Z,17.14
2018-05-24T07:43:50.921Z,17.43
2018-05-24T07:46:24.676Z,17.83
2018-05-24T07:48:58.513Z,17.95
2018-05-24T07:51:32.082Z,17.60
2018-05-24T07:54:05.759Z,17.80
2018-05-24T07:56:39.448Z,17.32
2018-05-24T07:59:13.235Z,17.26
2018-05-24T08:01:46.927Z,17.19
2018-05-24T08:04:20.640Z,17.26
2018-05-24T08:06:54.401Z,17.26
2018-05-24T08:09:27.934Z,17.37
2018-05-24T08:12:01.594Z,17.72
2018-05-24T08:14:35.208Z,17.89
2018-05-24T08:17:08.882Z,18.34
2018-05-24T08:19:42.580Z,18.74
2018-05-24T08:22:16.185Z,19.59
2018-05-24T08:24:49.953Z,20.38
2018-05-24T08:27:23.623Z,20.01
2018-05-24T08:29:57.252Z,20.08
2018-05-24T08:32:30.973Z,19.64
2018-05-24T08:35:04.637Z,19.65
2018-05-24T08:37:38.332Z,20.67
2018-05-24T08:40:12.037Z,20.62
2018-05-24T08:42:45.792Z,20.00
2018-05-24T08:45:19.480Z,19.81
2018-05-24T08:47:53.054Z,19.42
2018-05-24T08:50:26.784Z,19.31
2018-05-24T08:53:00.547Z,18.70
2018-05-24T08:55:34.412Z,18.90
2018-05-24T08:58:08.181Z,18.71
2018-05-24T09:00:41.845Z,18.80
2018-05-24T09:03:15.512Z,18.78
2018-05-24T09:05:49.205Z,18.70
2018-05-24T09:08:23.009Z,18.76
2018-05-24T09:10:56.789Z,18.69
2018-05-24T09:13:30.505Z,18.82
2018-05-24T09:16:04.252Z,18.93
2018-05-24T09:18:38.115Z,18.62
2018-05-24T09:21:11.850Z,18.84
2018-05-24T09:23:45.565Z,18.79
2018-05-24T09:26:19.389Z,18.65
2018-05-24T09:28:53.201Z,18.82
2018-05-24T09:31:26.867Z,18.88
2018-05-24T09:34:00.496Z,18.81
2018-05-24T09:36:34.078Z,18.64
2018-05-24T09:39:07.950Z,19.02
2018-05-24T09:41:41.691Z,19.10
2018-05-24T09:44:15.297Z,19.36
2018-05-24T09:46:48.983Z,19.17
2018-05-24T09:49:22.581Z,19.18
2018-05-24T09:51:56.221Z,19.50
2018-05-24T09:54:29.870Z,19.81
2018-05-24T09:57:03.463Z,20.25
2018-05-24T09:59:37.016Z,20.86
2018-05-24T10:02:10.548Z,21.97
2018-05-24T10:04:44.440Z,21.95
2018-05-24T10:07:18.006Z,22.18
2018-05-24T10:09:51.805Z,21.80
2018-05-24T10:12:25.484Z,21.43
2018-05-24T10:14:59.117Z,21.55
2018-05-24T10:17:32.642Z,20.87
2018-05-24T10:20:06.147Z,21.29
2018-05-24T10:22:39.682Z,21.57
2018-05-24T10:25:13.260Z,21.60
2018-05-24T10:27:46.992Z,21.23
2018-05-24T10:30:20.580Z,21.29
2018-05-24T10:32:54.315Z,21.09
2018-05-24T10:35:27.904Z,20.95
2018-05-24T10:38:01.666Z,20.95
2018-05-24T10:40:35.412Z,21.18
2018-05-24T10:43:09.158Z,21.31
2018-05-24T10:45:43.067Z,21.15
2018-05-24T10:48:16.722Z,21.61
2018-05-24T10:50:50.261Z,21.88
2018-05-24T10:53:23.961Z,22.66
2018-05-24T10:55:57.997Z,22.69
2018-05-24T10:58:31.532Z,23.86
2018-05-24T11:01:05.076Z,23.36
2018-05-24T11:03:38.795Z,22.61
2018-05-24T11:06:12.581Z,22.49
2018-05-24T11:08:46.361Z,21.75
2018-05-24T11:11:20.184Z,21.71
2018-05-24T11:13:53.732Z,21.75
2018-05-24T11:16:27.259Z,21.44
2018-05-24T11:19:00.840Z,21.47
2018-05-24T11:21:34.523Z,21.71
2018-05-24T11:24:08.290Z,22.51
2018-05-24T11:26:42.008Z,23.40
2018-05-24T11:29:15.612Z,23.53
2018-05-24T11:31:49.228Z,23.84
2018-05-24T11:34:22.705Z,23.72
2018-05-24T11:36:56.482Z,23.51
2018-05-24T11:39:30.224Z,23.10
2018-05-24T11:42:03.866Z,23.39
2018-05-24T11:44:37.435Z,23.60
2018-05-24T11:47:11.076Z,23.57
2018-05-24T11:49:44.841Z,23.75
2018-05-24T11:52:18.487Z,23.12
2018-05-24T11:54:51.968Z,23.07
2018-05-24T11:57:25.628Z,23.21
2018-05-24T11:59:59.295Z,23.27
2018-05-24T12:02:33.207Z,23.46
2018-05-24T12:05:06.896Z,23.60
2018-05-24T12:07:40.425Z,23.91
2018-05-24T12:10:14.146Z,24.14
2018-05-24T12:12:47.945Z,23.81
2018-05-24T12:15:21.546Z,24.32
2018-05-24T12:17:55.187Z,24.24
2018-05-24T12:20:28.772Z,24.03
2018-05-24T12:23:02.564Z,23.75
2018-05-24T12:25:36.185Z,24.04
2018-05-24T12:28:09.783Z,24.32
2018-05-24T12:30:43.537Z,24.24
2018-05-24T12:33:17.119Z,24.21
2018-05-24T12:35:50.700Z,24.36
2018-05-24T12:38:24.366Z,24.79
2018-05-24T12:40:57.942Z,24.72
2018-05-24T12:43:31.996Z,24.69
2018-05-24T12:46:05.691Z,24.27
2018-05-24T12:48:39.482Z,24.57
2018-05-24T12:51:13.100Z,24.49
2018-05-24T12:53:46.656Z,24.95
2018-05-24T12:56:20.408Z,24.99
2018-05-24T12:58:54.060Z,24.86
2018-05-24T13:01:27.663Z,24.97
2018-05-24T13:04:01.247Z,24.90
2018-05-24T13:06:35.004Z,25.04
2018-05-24T13:09:08.509Z,24.85
2018-05-24T13:11:42.336Z,24.78
2018-05-24T13:14:16.100Z,24.63
2018-05-24T13:16:49.744Z,23.95
2018-05-24T13:19:23.527Z,23.75
2018-05-24T13:21:57.170Z,23.42
2018-05-24T13:24:30.975Z,23.00
2018-05-24T13:27:04.768Z,22.97
2018-05-24T13:29:38.249Z,22.81
2018-05-24T13:32:12.020Z,22.86
2018-05-24T13:34:45.814Z,22.87
2018-05-24T13:37:19.480Z,22.89
2018-05-24T13:39:53.135Z,22.86
2018-05-24T13:42:26.716Z,23.20
2018-05-24T13:45:00.268Z,23.23
2018-05-24T13:47:33.920Z,22.87
2018-05-24T13:50:07.404Z,23.22
2018-05-24T13:52:41.149Z,23.37
2018-05-24T13:55:14.718Z,23.52
2018-05-24T13:57:48.290Z,23.18
2018-05-24T14:00:21.808Z,22.70
2018-05-24T14:02:55.334Z,22.69
2018-05-24T14:05:28.876Z,22.62
2018-05-24T14:08:02.533Z,22.19
2018-05-24T14:10:36.044Z,21.92
2018-05-24T14:13:09.855Z,21.69
2018-05-24T14:15:43.428Z,21.35
2018-05-24T14:18:17.044Z,21.16
2018-05-24T14:20:50.740Z,20.90
2018-05-24T14:23:24.299Z,20.81
2018-05-24T14:25:58.123Z,20.72
2018-05-24T14:28:31.656Z,20.77
2018-05-24T14:31:05.438Z,20.77
2018-05-24T14:33:39.068Z,20.76
2018-05-24T14:36:12.843Z,20.82
2018-05-24T14:38:46.642Z,20.66
2018-05-24T14:41:20.447Z,20.83
2018-05-24T14:43:53.976Z,20.90
2018-05-24T14:46:31.360Z,21.06
2018-05-24T14:49:05.007Z,21.17
2018-05-24T14:51:38.496Z,21.29
2018-05-24T14:54:12.046Z,21.42
2018-05-24T14:56:45.742Z,21.51
2018-05-24T14:59:19.288Z,21.50
2018-05-24T15:01:53.063Z,21.47
2018-05-24T15:04:26.731Z,21.54
2018-05-24T15:07:00.306Z,21.68
2018-05-24T15:09:33.903Z,21.71
2018-05-24T15:12:07.500Z,21.94
2018-05-24T15:14:41.064Z,22.25
2018-05-24T15:17:14.860Z,22.61
2018-05-24T15:19:48.468Z,22.39
2018-05-24T15:22:22.067Z,22.40
2018-05-24T15:24:55.728Z,22.26
2018-05-24T15:27:29.301Z,22.24
2018-05-24T15:30:02.939Z,22.04
2018-05-24T15:32:36.668Z,21.98
2018-05-24T15:35:10.191Z,21.76
2018-05-24T15:37:43.848Z,21.76
2018-05-24T15:40:17.612Z,21.75
2018-05-24T15:42:51.108Z,21.77
2018-05-24T15:45:24.777Z,21.68
2018-05-24T15:47:58.326Z,21.85
2018-05-24T15:50:31.918Z,21.57
2018-05-24T15:53:05.828Z,21.58
2018-05-24T15:55:39.953Z,21.78
2018-05-24T15:58:13.604Z,21.73
2018-05-24T16:00:47.135Z,21.64
2018-05-24T16:03:20.823Z,21.58
2018-05-24T16:05:54.590Z,21.61
2018-05-24T16:08:28.260Z,21.53
2018-05-24T16:11:01.912Z,21.48
2018-05-24T16:13:35.678Z,21.52
2018-05-24T16:16:09.379Z,21.59
2018-05-24T16:18:43.160Z,21.69
2018-05-24T16:21:16.880Z,21.64
2018-05-24T16:23:50.496Z,21.57
2018-05-24T16:26:24.151Z,21.50
2018-05-24T16:28:57.844Z,21.60
2018-05-24T16:31:31.328Z,21.60
2018-05-24T16:34:05.004Z,21.58
2018-05-24T16:36:38.551Z,21.32
2018-05-24T16:39:12.314Z,21.14
2018-05-24T16:41:46.089Z,21.22
2018-05-24T16:44:19.840Z,21.27
2018-05-24T16:46:53.488Z,21.36
2018-05-24T16:49:27.296Z,21.29
2018-05-24T16:52:00.772Z,21.24
2018-05-24T16:54:34.343Z,21.23
2018-05-24T16:57:08.001Z,21.30
2018-05-24T16:59:41.736Z,21.23
2018-05-24T17:02:15.600Z,21.23
2018-05-24T17:04:49.283Z,21.29
2018-05-24T17:07:22.895Z,21.27
2018-05-24T17:09:56.386Z,20.96
2018-05-24T17:12:30.051Z,20.91
2018-05-24T17:15:03.732Z,20.74
2018-05-24T17:17:37.381Z,20.66
2018-05-24T17:20:11.027Z,20.59
2018-05-24T17:22:44.747Z,20.43
2018-05-24T17:25:18.323Z,20.58
2018-05-24T17:27:52.040Z,20.43
2018-05-24T17:30:25.635Z,20.41
2018-05-24T17:32:59.565Z,20.40
2018-05-24T17:35:33.300Z,20.45
2018-05-24T17:38:06.854Z,20.40
2018-05-24T17:40:40.593Z,20.40
2018-05-24T17:43:14.399Z,20.35
2018-05-24T17:45:48.076Z,20.29
2018-05-24T17:48:21.555Z,20.36
2018-05-24T17:50:55.111Z,20.34
2018-05-24T17:53:28.776Z,20.19
2018-05-24T17:56:02.487Z,20.18
2018-05-24T17:58:36.224Z,20.16
2018-05-24T18:01:09.990Z,20.08
2018-05-24T18:03:43.503Z,19.95
2018-05-24T18:06:17.015Z,19.98
2018-05-24T18:08:50.697Z,20.04
2018-05-24T18:11:24.228Z,19.97
2018-05-24T18:13:57.801Z,19.94
2018-05-24T18:16:31.583Z,19.81
2018-05-24T18:19:05.268Z,19.82
2018-05-24T18:21:39.094Z,19.78
2018-05-24T18:24:12.764Z,19.69
2018-05-24T18:26:46.281Z,19.54
2018-05-24T18:29:19.821Z,19.56
2018-05-24T18:31:53.576Z,19.53
2018-05-24T18:34:27.084Z,19.46
2018-05-24T18:37:00.728Z,19.45
2018-05-24T18:39:34.248Z,19.41
2018-05-24T18:42:07.747Z,19.52
2018-05-24T18:44:41.324Z,19.35
2018-05-24T18:47:14.955Z,19.41
2018-05-24T18:49:48.761Z,19.33
2018-05-24T18:52:22.231Z,19.25
2018-05-24T18:54:55.785Z,19.30
2018-05-24T18:57:29.378Z,19.26
2018-05-24T19:00:03.024Z,19.18
2018-05-24T19:02:36.711Z,19.13
2018-05-24T19:05:10.460Z,19.06
2018-05-24T19:07:44.130Z,19.00
2018-05-24T19:10:17.714Z,18.96
2018-05-24T19:12:51.324Z,18.94
2018-05-24T19:15:25.172Z,18.97
2018-05-24T19:17:58.729Z,18.82
2018-05-24T19:20:32.511Z,18.78
2018-05-24T19:23:06.140Z,18.75
2018-05-24T19:25:39.926Z,18.76
2018-05-24T19:28:13.671Z,18.69
2018-05-24T19:30:47.400Z,18.68
2018-05-24T19:33:21.188Z,18.59
2018-05-24T19:35:54.961Z,18.58
2018-05-24T19:38:28.739Z,18.64
2018-05-24T19:41:02.427Z,18.53
2018-05-24T19:43:36.031Z,18.63
2018-05-24T19:46:09.837Z,18.53
2018-05-24T19:48:43.626Z,18.55
2018-05-24T19:51:17.179Z,18.53
2018-05-24T19:53:51.006Z,18.49
2018-05-24T19:56:24.588Z,18.54
2018-05-24T19:58:58.360Z,18.56
2018-05-24T20:01:32.036Z,18.54
2018-05-24T20:04:05.577Z,18.57
2018-05-24T20:06:39.372Z,18.49
2018-05-24T20:09:13.832Z,18.49
2018-05-24T20:11:47.603Z,18.51
2018-05-24T20:14:21.270Z,18.50
2018-05-24T20:16:54.815Z,18.40
2018-05-24T20:19:28.396Z,18.43
2018-05-24T20:22:01.904Z,18.41
2018-05-24T20:24:35.552Z,18.42
2018-05-24T20:27:09.149Z,18.34
2018-05-24T20:29:42.718Z,18.38
2018-05-24T20:32:16.315Z,18.37
2018-05-24T20:34:49.871Z,18.37
2018-05-24T20:37:23.564Z,18.42
2018-05-24T20:39:57.753Z,18.42
2018-05-24T20:42:31.290Z,18.38
2018-05-24T20:45:04.936Z,18.29
2018-05-24T20:47:38.465Z,18.30
2018-05-24T20:50:12.220Z,18.32
2018-05-24T20:52:45.743Z,18.21
2018-05-24T20:55:19.332Z,18.27
2018-05-24T20:57:53.143Z,18.28
2018-05-24T21:00:26.704Z,18.17
2018-05-24T21:03:00.310Z,18.18
2018-05-24T21:05:33.853Z,18.22
2018-05-24T21:08:07.487Z,18.21
2018-05-24T21:10:41.256Z,18.13
2018-05-24T21:13:14.944Z,18.07
2018-05-24T21:15:48.477Z,18.13
2018-05-24T21:18:22.305Z,18.17
2018-05-24T21:20:55.799Z,17.97
2018-05-24T21:23:29.495Z,17.99
2018-05-24T21:26:03.107Z,17.99
2018-05-24T21:28:36.668Z,17.93
2018-05-24T21:31:10.340Z,17.87
2018-05-24T21:33:43.924Z,17.86
2018-05-24T21:36:17.549Z,17.89
2018-05-24T21:38:51.174Z,17.77
2018-05-24T21:41:24.726Z,17.71
2018-05-24T21:43:58.459Z,17.84
2018-05-24T21:46:32.160Z,17.78
2018-05-24T21:49:05.812Z,17.78
2018-05-24T21:51:39.329Z,17.85
2018-05-24T21:54:13.036Z,17.79
2018-05-24T21:56:46.781Z,17.78
2018-05-24T21:59:20.340Z,17.73
2018-05-24T22:01:53.891Z,17.77
2018-05-24T22:04:27.428Z,17.68
2018-05-24T22:07:01.034Z,17.62
2018-05-24T22:09:40.587Z,17.55
2018-05-24T22:12:14.399Z,17.49
2018-05-24T22:14:48.024Z,17.50
2018-05-24T22:17:21.723Z,17.47
2018-05-24T22:19:55.332Z,17.52
2018-05-24T22:22:29.012Z,17.48
2018-05-24T22:25:02.652Z,17.42
2018-05-24T22:27:36.437Z,17.43
2018-05-24T22:30:10.101Z,17.45
2018-05-24T22:32:43.786Z,17.48
2018-05-24T22:35:17.416Z,17.37
2018-05-24T22:37:51.209Z,17.48
2018-05-24T22:40:25.112Z,17.54
2018-05-24T22:42:58.884Z,17.49
2018-05-24T22:45:32.435Z,17.38
2018-05-24T22:48:06.012Z,17.41
2018-05-24T22:50:39.602Z,17.35
2018-05-24T22:53:13.275Z,17.38
2018-05-24T22:55:46.786Z,17.31
2018-05-24T22:58:20.342Z,17.33
2018-05-24T23:00:53.891Z,17.23
2018-05-24T23:03:27.500Z,17.32
2018-05-24T23:06:01.257Z,17.21
2018-05-24T23:08:35.055Z,17.14
2018-05-24T23:11:08.687Z,17.01
2018-05-24T23:13:42.308Z,16.99
2018-05-24T23:16:16.006Z,16.96
2018-05-24T23:18:49.639Z,16.99
2018-05-24T23:21:23.179Z,17.04
2018-05-24T23:23:56.811Z,17.03
2018-05-24T23:26:30.522Z,17.01
2018-05-24T23:29:04.317Z,16.99
2018-05-24T23:31:38.070Z,16.99
2018-05-24T23:34:11.843Z,16.90
2018-05-24T23:36:45.480Z,16.89
2018-05-24T23:39:19.140Z,16.86
2018-05-24T23:41:52.809Z,16.76
2018-05-24T23:44:26.569Z,16.70
2018-05-24T23:47:00.273Z,16.64
2018-05-24T23:49:33.841Z,16.70
2018-05-24T23:52:07.448Z,16.63
2018-05-24T23:54:41.146Z,16.65
2018-05-24T23:57:14.774Z,16.59
2018-05-24T23:59:48.437Z,16.68
